Time;durP1;ratioP1;P1;durP2;ratioP2;P2;SDS_P1;SDS_P2;PMS_P1;PMS_P2;Temp;Humidity;BMP_temperature;BMP_pressure;BME280_temperature;BME280_humidity;BME280_pressure;Samples;Min_cycle;Max_cycle;Signal;HPM_P1;HPM_P2
2024/04/13 00:02:01;;;;;;;1.17;1.00;;;12.10;99.90;;;;;;5498523;26;20499;-82
2024/04/13 00:04:27;;;;;;;1.17;1.17;;;12.10;99.90;;;;;;5498028;26;20519;-82
2024/04/13 00:06:55;;;;;;;1.40;1.30;;;12.10;99.90;;;;;;5498890;26;20556;-82
2024/04/13 00:09:21;;;;;;;3.00;1.80;;;12.10;99.90;;;;;;5498856;26;20265;-82
2024/04/13 00:11:52;;;;;;;2.93;1.63;;;12.10;99.90;;;;;;5498437;26;20528;-83
2024/04/13 00:14:18;;;;;;;1.40;1.30;;;12.10;99.90;;;;;;5498457;26;20203;-83
2024/04/13 00:16:46;;;;;;;2.07;1.53;;;12.00;99.90;;;;;;5497229;26;20539;-82
2024/04/13 00:19:12;;;;;;;1.90;1.80;;;12.00;99.90;;;;;;5498054;26;20270;-83
2024/04/13 00:21:41;;;;;;;1.30;1.20;;;11.90;99.90;;;;;;5498228;26;20443;-83
2024/04/13 00:24:07;;;;;;;2.50;1.60;;;11.90;99.90;;;;;;5498091;26;20248;-83
2024/04/13 00:26:36;;;;;;;1.87;1.60;;;11.80;99.90;;;;;;5498323;26;20514;-83
2024/04/13 00:29:05;;;;;;;2.60;1.70;;;11.80;99.90;;;;;;5497763;26;20511;-83
2024/04/13 00:31:33;;;;;;;2.30;1.50;;;11.70;99.90;;;;;;5498162;26;20808;-83
2024/04/13 00:33:59;;;;;;;2.13;1.37;;;11.70;99.90;;;;;;5497743;26;20599;-82
2024/04/13 00:36:28;;;;;;;1.60;1.50;;;11.70;99.90;;;;;;5497766;26;20440;-83
2024/04/13 00:38:53;;;;;;;2.20;1.70;;;11.70;99.90;;;;;;5498275;26;20323;-83
2024/04/13 00:41:22;;;;;;;1.80;1.70;;;11.60;99.90;;;;;;5496566;26;20452;-83
2024/04/13 00:43:48;;;;;;;4.03;2.03;;;11.60;99.90;;;;;;5499803;26;20227;-83
2024/04/13 00:46:23;;;;;;;4.73;2.03;;;11.50;99.90;;;;;;5497328;26;20491;-82
2024/04/13 00:48:50;;;;;;;2.60;2.40;;;11.50;99.90;;;;;;5498044;26;20206;-82
2024/04/13 00:51:23;;;;;;;1.93;1.83;;;11.40;99.90;;;;;;5497212;26;20523;-83
2024/04/13 00:53:49;;;;;;;3.37;2.37;;;11.40;99.90;;;;;;5497664;26;20471;-83
2024/04/13 00:56:18;;;;;;;6.33;2.00;;;11.40;99.90;;;;;;5497433;26;20496;-83
2024/04/13 00:58:44;;;;;;;1.73;1.60;;;11.40;99.90;;;;;;5497342;26;20505;-82
2024/04/13 01:01:15;;;;;;;3.57;1.70;;;11.40;99.90;;;;;;5497299;26;21004;-83
2024/04/13 01:03:45;;;;;;;2.33;1.70;;;11.30;99.90;;;;;;5497636;26;20805;-83
2024/04/13 01:06:15;;;;;;;1.80;1.50;;;11.30;99.90;;;;;;5497105;26;20530;-83
2024/04/13 01:08:40;;;;;;;1.37;1.27;;;11.30;99.90;;;;;;5496091;26;20507;-83
2024/04/13 01:11:09;;;;;;;3.17;1.30;;;11.30;99.90;;;;;;5496685;26;20545;-83
2024/04/13 01:13:38;;;;;;;3.60;1.37;;;11.30;99.90;;;;;;5495817;26;20620;-82
2024/04/13 01:16:07;;;;;;;3.67;1.90;;;11.20;99.90;;;;;;5497314;26;20826;-82
2024/04/13 01:18:33;;;;;;;2.37;1.50;;;11.20;99.90;;;;;;5496111;26;20557;-82
2024/04/13 01:21:05;;;;;;;1.37;1.17;;;11.20;99.90;;;;;;5497219;26;20533;-82
2024/04/13 01:23:33;;;;;;;1.57;1.23;;;11.20;99.90;;;;;;5503906;26;20460;-81
2024/04/13 01:26:07;;;;;;;1.50;1.40;;;11.10;99.90;;;;;;5493147;26;20506;-82
2024/04/13 01:28:33;;;;;;;5.97;2.00;;;11.10;99.90;;;;;;5491969;26;20576;-82
2024/04/13 01:31:03;;;;;;;1.73;1.37;;;11.10;99.90;;;;;;5502584;26;20460;-82
2024/04/13 01:33:29;;;;;;;1.33;1.23;;;11.10;99.90;;;;;;5499461;26;20835;-82
2024/04/13 01:36:00;;;;;;;1.20;1.10;;;11.10;99.90;;;;;;5498462;26;20439;-83
2024/04/13 01:38:26;;;;;;;2.50;1.60;;;11.10;99.90;;;;;;5497384;26;20452;-83
2024/04/13 01:40:54;;;;;;;2.00;1.63;;;11.10;99.90;;;;;;5495614;26;20503;-83
2024/04/13 01:43:23;;;;;;;2.97;1.33;;;11.10;99.90;;;;;;5496258;26;20314;-83
2024/04/13 01:45:52;;;;;;;1.83;1.10;;;11.10;99.90;;;;;;5495629;26;20504;-83
2024/04/13 01:48:18;;;;;;;2.03;1.47;;;11.10;99.90;;;;;;5495820;26;20486;-83
2024/04/13 01:50:46;;;;;;;1.40;1.30;;;11.10;99.90;;;;;;5495275;26;20447;-83
2024/04/13 01:53:13;;;;;;;1.20;1.10;;;11.10;99.90;;;;;;5495143;26;20265;-83
2024/04/13 01:55:41;;;;;;;2.70;1.50;;;11.00;99.90;;;;;;5494892;26;20451;-83
2024/04/13 01:58:07;;;;;;;0.97;0.97;;;11.00;99.90;;;;;;5500840;26;20510;-82
2024/04/13 02:00:39;;;;;;;1.63;1.10;;;11.00;99.90;;;;;;5502206;26;20960;-83
2024/04/13 02:03:05;;;;;;;6.27;1.73;;;11.00;99.90;;;;;;5502108;26;20223;-83
2024/04/13 02:05:37;;;;;;;1.50;1.10;;;10.90;99.90;;;;;;5499427;26;20498;-84
2024/04/13 02:08:06;;;;;;;1.67;1.30;;;10.90;99.90;;;;;;5495067;26;20230;-83
2024/04/13 02:10:35;;;;;;;1.20;1.10;;;10.90;99.90;;;;;;5494996;26;20492;-83
2024/04/13 02:13:01;;;;;;;2.33;0.90;;;10.90;99.90;;;;;;5494659;26;20526;-83
2024/04/13 02:15:29;;;;;;;1.77;1.47;;;10.80;99.90;;;;;;5494440;26;20556;-83
2024/04/13 02:17:57;;;;;;;3.40;1.47;;;10.90;99.90;;;;;;5494256;26;20290;-83
2024/04/13 02:20:26;;;;;;;1.70;1.50;;;10.90;99.90;;;;;;5495228;26;20496;-82
2024/04/13 02:22:53;;;;;;;1.70;1.13;;;11.00;99.90;;;;;;5494147;26;20455;-83
2024/04/13 02:25:22;;;;;;;1.60;1.17;;;10.90;99.90;;;;;;5494873;26;20555;-83
2024/04/13 02:27:48;;;;;;;1.43;1.10;;;10.90;99.90;;;;;;5494456;26;20318;-83
2024/04/13 02:30:17;;;;;;;2.30;1.30;;;10.90;99.90;;;;;;5494099;26;20532;-83
2024/04/13 02:32:43;;;;;;;2.00;1.10;;;10.90;99.90;;;;;;5494241;26;20565;-83
2024/04/13 02:35:14;;;;;;;3.33;1.30;;;10.90;99.90;;;;;;5493680;26;20459;-83
2024/04/13 02:37:39;;;;;;;1.90;1.00;;;10.90;99.90;;;;;;5494021;26;20715;-83
2024/04/13 02:40:09;;;;;;;1.37;1.20;;;10.90;99.90;;;;;;5493535;26;20557;-83
2024/04/13 02:42:35;;;;;;;4.33;1.27;;;10.80;99.90;;;;;;5493565;26;20223;-82
2024/04/13 02:45:05;;;;;;;0.80;0.80;;;10.80;99.90;;;;;;5493623;26;20452;-82
2024/04/13 02:47:31;;;;;;;1.37;1.27;;;10.90;99.90;;;;;;5493886;26;20991;-83
2024/04/13 02:50:01;;;;;;;2.53;1.10;;;10.80;99.90;;;;;;5493388;26;20977;-82
2024/04/13 02:52:30;;;;;;;2.30;1.30;;;10.80;99.90;;;;;;5493550;26;20507;-83
2024/04/13 02:54:59;;;;;;;1.67;1.23;;;10.70;99.90;;;;;;5493919;26;20440;-83
2024/04/13 02:57:25;;;;;;;1.43;1.07;;;10.70;99.90;;;;;;5492832;26;20531;-83
2024/04/13 02:59:54;;;;;;;1.40;1.30;;;10.70;99.90;;;;;;5492909;26;20487;-82
2024/04/13 03:02:19;;;;;;;1.80;1.00;;;10.70;99.90;;;;;;5493880;26;20467;-82
2024/04/13 03:04:48;;;;;;;2.10;1.43;;;10.60;99.90;;;;;;5493617;26;20538;-83
2024/04/13 03:07:14;;;;;;;2.00;1.13;;;10.60;99.90;;;;;;5496989;26;20695;-83
2024/04/13 03:09:46;;;;;;;3.27;1.20;;;10.60;99.90;;;;;;5497338;26;20452;-83
2024/04/13 03:12:13;;;;;;;1.57;1.07;;;10.70;99.90;;;;;;5496266;26;20254;-82
2024/04/13 03:14:42;;;;;;;1.03;1.03;;;10.70;99.90;;;;;;5496636;26;20489;-83
2024/04/13 03:17:07;;;;;;;1.27;1.17;;;10.70;99.90;;;;;;5496671;26;20459;-82
2024/04/13 03:19:36;;;;;;;1.23;1.13;;;10.70;99.90;;;;;;5496248;26;20538;-82
2024/04/13 03:22:02;;;;;;;1.20;1.10;;;10.70;99.90;;;;;;5496204;26;20730;-82
2024/04/13 03:24:33;;;;;;;1.40;1.03;;;10.70;99.90;;;;;;5496484;26;20514;-82
2024/04/13 03:27:02;;;;;;;2.10;1.20;;;10.70;99.90;;;;;;5496719;26;20459;-82
2024/04/13 03:29:30;;;;;;;1.30;1.20;;;10.70;99.90;;;;;;5496751;26;20486;-83
2024/04/13 03:31:56;;;;;;;1.43;1.00;;;10.70;99.90;;;;;;5495837;26;20448;-83
2024/04/13 03:34:24;;;;;;;2.43;2.07;;;10.70;99.90;;;;;;5496165;26;20535;-82
2024/04/13 03:36:50;;;;;;;1.40;1.30;;;10.70;99.90;;;;;;5500666;26;20636;-82
2024/04/13 03:39:21;;;;;;;5.50;1.40;;;10.60;99.90;;;;;;5493421;26;20448;-82
2024/04/13 03:41:49;;;;;;;2.37;1.53;;;10.50;99.90;;;;;;5493285;26;20243;-82
2024/04/13 03:44:20;;;;;;;1.73;1.60;;;10.50;99.90;;;;;;5493265;26;20451;-82
2024/04/13 03:46:46;;;;;;;1.10;1.00;;;10.50;99.90;;;;;;5494598;26;20565;-82
2024/04/13 03:49:15;;;;;;;2.10;1.10;;;10.50;99.90;;;;;;5493379;26;20440;-82
2024/04/13 03:51:40;;;;;;;2.70;1.87;;;10.50;99.90;;;;;;5493732;26;20511;-82
2024/04/13 03:54:09;;;;;;;4.90;1.67;;;10.50;99.90;;;;;;5493362;26;20910;-82
2024/04/13 03:56:35;;;;;;;4.70;1.40;;;10.50;99.90;;;;;;5493590;26;20282;-82
2024/04/13 03:59:03;;;;;;;2.77;1.27;;;10.50;99.90;;;;;;5493274;26;20583;-82
2024/04/13 04:01:31;;;;;;;1.47;1.27;;;10.40;99.90;;;;;;5493742;26;20274;-82
2024/04/13 04:04:00;;;;;;;1.77;1.30;;;10.40;99.90;;;;;;5493949;26;20581;-82
2024/04/13 04:06:26;;;;;;;1.37;1.27;;;10.30;99.90;;;;;;5493881;26;20455;-82
2024/04/13 04:08:54;;;;;;;2.13;1.50;;;10.30;99.90;;;;;;5494089;26;20553;-82
2024/04/13 04:11:20;;;;;;;2.73;1.30;;;10.30;99.90;;;;;;5494015;26;20459;-82
2024/04/13 04:13:49;;;;;;;3.30;1.80;;;10.20;99.90;;;;;;5494197;26;20518;-82
2024/04/13 04:16:15;;;;;;;2.63;2.00;;;10.20;99.90;;;;;;5494081;26;20467;-82
2024/04/13 04:18:46;;;;;;;1.90;1.77;;;10.20;99.90;;;;;;5494153;26;20440;-82
2024/04/13 04:21:11;;;;;;;1.50;1.40;;;10.20;99.90;;;;;;5494178;26;20332;-83
2024/04/13 04:23:40;;;;;;;2.10;1.90;;;10.10;99.90;;;;;;5494158;26;20468;-82
2024/04/13 04:26:06;;;;;;;1.73;1.60;;;10.10;99.90;;;;;;5493767;26;20340;-82
2024/04/13 04:28:35;;;;;;;1.87;1.77;;;10.10;99.90;;;;;;5493806;26;20553;-83
2024/04/13 04:31:11;;;;;;;2.80;1.87;;;10.10;99.90;;;;;;5494171;26;20551;-83
2024/04/13 04:33:39;;;;;;;2.60;2.40;;;10.10;99.90;;;;;;5494369;26;20802;-83
2024/04/13 04:36:08;;;;;;;3.57;1.60;;;10.10;99.90;;;;;;5494807;26;20507;-83
2024/04/13 04:38:37;;;;;;;10.23;2.07;;;10.10;99.90;;;;;;5494383;26;20806;-83
2024/04/13 04:41:03;;;;;;;7.97;1.83;;;10.10;99.90;;;;;;5496712;26;20558;-83
2024/04/13 04:43:31;;;;;;;1.83;1.63;;;10.10;99.90;;;;;;5496673;26;20573;-83
2024/04/13 04:45:58;;;;;;;3.07;2.27;;;10.20;99.90;;;;;;5496109;26;20576;-83
2024/04/13 04:48:26;;;;;;;2.47;2.27;;;10.20;99.90;;;;;;5497233;26;20509;-83
2024/04/13 04:50:56;;;;;;;1.40;1.30;;;10.20;99.90;;;;;;5505315;26;20492;-83
2024/04/13 04:53:28;;;;;;;2.27;1.77;;;10.20;99.90;;;;;;5502629;26;20546;-83
2024/04/13 04:55:55;;;;;;;4.10;1.53;;;10.20;99.90;;;;;;5500568;26;20503;-83
2024/04/13 04:58:23;;;;;;;4.60;2.23;;;10.20;99.90;;;;;;5498587;26;20520;-83
2024/04/13 05:00:49;;;;;;;4.03;1.80;;;10.30;99.90;;;;;;5496327;26;20447;-83
2024/04/13 05:03:18;;;;;;;1.57;1.47;;;10.30;99.90;;;;;;5496861;26;20807;-83
2024/04/13 05:05:44;;;;;;;2.30;1.73;;;10.30;99.90;;;;;;5496060;26;20298;-83
2024/04/13 05:08:12;;;;;;;3.53;2.17;;;10.30;99.90;;;;;;5496165;26;20455;-83
2024/04/13 05:10:41;;;;;;;2.33;1.70;;;10.30;99.90;;;;;;5496142;26;20210;-83
2024/04/13 05:13:09;;;;;;;1.60;1.50;;;10.30;99.90;;;;;;5496675;26;20909;-83
2024/04/13 05:15:35;;;;;;;2.77;2.00;;;10.30;99.90;;;;;;5495754;26;20534;-83
2024/04/13 05:18:05;;;;;;;1.60;1.50;;;10.30;99.90;;;;;;5496047;26;20440;-83
2024/04/13 05:20:34;;;;;;;1.50;1.40;;;10.30;99.90;;;;;;5496113;26;20794;-83
2024/04/13 05:23:01;;;;;;;3.77;1.77;;;10.40;99.90;;;;;;5495391;26;20541;-83
2024/04/13 05:25:30;;;;;;;2.00;1.83;;;10.40;99.90;;;;;;5495551;26;20506;-83
2024/04/13 05:27:58;;;;;;;2.30;1.70;;;10.30;99.90;;;;;;5495008;26;20518;-83
2024/04/13 05:30:27;;;;;;;1.80;1.70;;;10.40;99.90;;;;;;5496143;26;20586;-83
2024/04/13 05:32:52;;;;;;;2.97;2.47;;;10.40;99.90;;;;;;5495674;26;20527;-83
2024/04/13 05:35:21;;;;;;;2.87;2.00;;;10.40;99.90;;;;;;5495265;26;20452;-83
2024/04/13 05:37:47;;;;;;;2.20;1.80;;;10.40;99.90;;;;;;5495622;26;20305;-83
2024/04/13 05:40:15;;;;;;;2.23;1.40;;;10.40;99.90;;;;;;5495537;26;20448;-83
2024/04/13 05:42:41;;;;;;;2.97;1.90;;;10.40;99.90;;;;;;5495434;26;20308;-83
2024/04/13 05:45:12;;;;;;;2.07;1.33;;;10.50;99.90;;;;;;5500448;26;20447;-82
2024/04/13 05:47:38;;;;;;;1.40;1.30;;;10.60;99.90;;;;;;5493515;26;20289;-83
2024/04/13 05:50:07;;;;;;;1.60;1.43;;;10.70;99.90;;;;;;5494030;26;20436;-83
2024/04/13 05:52:33;;;;;;;5.73;2.07;;;10.90;99.90;;;;;;5494023;26;20560;-83
2024/04/13 05:55:01;;;;;;;2.10;1.17;;;11.10;99.90;;;;;;5494074;26;20444;-82
2024/04/13 05:57:28;;;;;;;4.10;2.23;;;11.20;99.90;;;;;;5494466;26;20222;-83
2024/04/13 05:59:56;;;;;;;5.23;1.60;;;11.40;99.90;;;;;;5492751;26;20436;-83
2024/04/13 06:02:26;;;;;;;1.43;1.33;;;11.60;99.90;;;;;;5492665;26;20526;-83
2024/04/13 06:04:54;;;;;;;1.63;1.27;;;11.80;99.90;;;;;;5493153;26;20448;-82
2024/04/13 06:07:20;;;;;;;1.60;1.50;;;11.90;99.90;;;;;;5492818;26;20459;-83
2024/04/13 06:09:50;;;;;;;1.53;1.43;;;12.10;99.90;;;;;;5493007;26;20447;-83
2024/04/13 06:12:18;;;;;;;1.13;1.13;;;12.20;99.90;;;;;;5492295;26;20274;-83
2024/04/13 06:14:47;;;;;;;1.50;1.40;;;12.40;99.90;;;;;;5492479;26;20439;-82
2024/04/13 06:17:16;;;;;;;3.07;2.00;;;12.50;99.90;;;;;;5492209;26;20444;-83
2024/04/13 06:19:44;;;;;;;1.77;1.60;;;12.60;99.90;;;;;;5492474;26;20511;-83
2024/04/13 06:22:13;;;;;;;1.60;1.47;;;12.70;99.90;;;;;;5493658;26;21011;-83
2024/04/13 06:24:39;;;;;;;1.50;1.20;;;12.90;99.90;;;;;;5492815;26;20558;-83
2024/04/13 06:27:09;;;;;;;1.93;1.30;;;13.10;99.90;;;;;;5493699;26;21045;-83
2024/04/13 06:29:35;;;;;;;5.10;1.40;;;13.70;99.90;;;;;;5492959;26;20439;-83
2024/04/13 06:32:04;;;;;;;1.80;1.47;;;14.50;99.90;;;;;;5493457;26;20439;-83
2024/04/13 06:34:30;;;;;;;2.60;1.40;;;15.30;99.90;;;;;;5493070;26;20491;-83
2024/04/13 06:37:01;;;;;;;1.47;1.37;;;16.00;99.90;;;;;;5493136;26;20513;-83
2024/04/13 06:39:27;;;;;;;1.63;1.47;;;16.50;99.90;;;;;;5493710;26;20306;-83
2024/04/13 06:41:55;;;;;;;6.90;2.57;;;16.80;99.90;;;;;;5496803;26;20940;-83
2024/04/13 06:44:21;;;;;;;1.77;1.67;;;17.00;99.90;;;;;;5496672;26;20257;-83
2024/04/13 06:46:51;;;;;;;2.17;2.03;;;17.30;99.90;;;;;;5496927;26;20444;-84
2024/04/13 06:49:17;;;;;;;2.83;1.40;;;17.60;99.90;;;;;;5495896;26;20579;-83
2024/04/13 06:51:45;;;;;;;1.60;1.50;;;17.90;99.90;;;;;;5496229;26;20455;-83
2024/04/13 06:54:13;;;;;;;2.00;1.80;;;18.20;99.90;;;;;;5496837;26;20234;-83
2024/04/13 06:56:42;;;;;;;2.20;1.73;;;18.50;99.90;;;;;;5497072;26;20543;-83
2024/04/13 06:59:08;;;;;;;1.77;1.67;;;18.80;99.90;;;;;;5496643;26;20838;-83
2024/04/13 07:01:37;;;;;;;1.90;1.60;;;19.00;99.90;;;;;;5496053;26;20439;-83
2024/04/13 07:04:03;;;;;;;1.97;1.63;;;19.40;99.90;;;;;;5496526;26;20270;-83
2024/04/13 07:06:34;;;;;;;2.97;1.70;;;19.90;99.90;;;;;;5495625;26;20858;-83
2024/04/13 07:09:00;;;;;;;2.47;1.67;;;20.50;99.90;;;;;;5495934;26;20500;-83
2024/04/13 07:11:31;;;;;;;1.70;1.60;;;21.10;99.30;;;;;;5494920;26;20458;-83
2024/04/13 07:13:57;;;;;;;1.57;1.47;;;21.50;98.50;;;;;;5495495;26;20225;-83
2024/04/13 07:16:26;;;;;;;1.73;1.63;;;21.80;97.50;;;;;;5495925;26;20499;-83
2024/04/13 07:18:51;;;;;;;1.53;1.43;;;22.00;96.60;;;;;;5495754;26;20246;-83
2024/04/13 07:21:20;;;;;;;1.20;1.20;;;22.10;96.70;;;;;;5495905;26;20447;-83
2024/04/13 07:23:45;;;;;;;4.30;1.30;;;22.20;96.40;;;;;;5496178;26;20270;-83
2024/04/13 07:26:14;;;;;;;2.38;1.80;;;22.40;96.40;;;;;;5496028;26;20210;-83
2024/04/13 07:28:45;;;;;;;1.67;1.13;;;22.50;95.60;;;;;;5496003;26;20301;-83
2024/04/13 07:31:11;;;;;;;3.25;1.05;;;22.70;93.50;;;;;;5497309;26;20216;-83
2024/04/13 07:33:39;;;;;;;2.20;1.35;;;23.30;92.50;;;;;;5497199;26;20318;-83
2024/04/13 07:36:06;;;;;;;1.10;1.00;;;23.70;91.10;;;;;;5497697;26;20326;-84
2024/04/13 07:38:34;;;;;;;1.38;1.27;;;24.30;91.40;;;;;;5497077;26;20218;-83
2024/04/13 07:41:00;;;;;;;1.02;1.02;;;24.80;90.10;;;;;;5504390;26;20214;-83
2024/04/13 07:43:29;;;;;;;1.55;1.40;;;25.00;89.00;;;;;;5504164;26;20252;-83
2024/04/13 07:45:57;;;;;;;1.40;1.30;;;25.20;85.80;;;;;;5504561;26;20310;-83
2024/04/13 07:48:26;;;;;;;1.23;1.23;;;25.50;85.10;;;;;;5503254;26;20218;-84
2024/04/13 07:50:52;;;;;;;3.42;1.85;;;25.60;85.40;;;;;;5498482;26;20324;-84
2024/04/13 07:53:21;;;;;;;1.70;1.60;;;25.80;85.10;;;;;;5499019;26;20777;-83
2024/04/13 07:55:48;;;;;;;1.70;1.58;;;26.00;85.30;;;;;;5498393;26;20210;-83
2024/04/13 07:58:16;;;;;;;3.45;1.40;;;26.20;84.70;;;;;;5498204;26;20239;-83
2024/04/13 08:00:42;;;;;;;1.77;1.67;;;26.30;83.70;;;;;;5495244;26;20229;-83
2024/04/13 08:03:13;;;;;;;1.25;1.17;;;26.60;82.00;;;;;;5497634;26;20332;-84
2024/04/13 08:05:39;;;;;;;1.83;1.67;;;27.10;81.20;;;;;;5497159;26;20345;-83
2024/04/13 08:08:08;;;;;;;1.25;1.15;;;27.40;79.00;;;;;;5500392;26;20624;-83
2024/04/13 08:10:37;;;;;;;1.45;1.35;;;27.50;77.80;;;;;;5497039;26;20626;-83
2024/04/13 08:13:06;;;;;;;1.90;1.30;;;27.40;78.20;;;;;;5498208;26;20316;-84
2024/04/13 08:15:31;;;;;;;1.60;1.50;;;27.00;78.20;;;;;;5497760;26;20251;-84
2024/04/13 08:18:00;;;;;;;0.95;0.77;;;26.70;78.60;;;;;;5498183;26;20325;-84
2024/04/13 08:20:28;;;;;;;1.55;1.45;;;26.30;79.70;;;;;;5498029;26;20302;-84
2024/04/13 08:22:57;;;;;;;1.50;1.20;;;25.90;79.80;;;;;;5497531;26;20780;-84
2024/04/13 08:25:23;;;;;;;0.98;0.98;;;25.70;81.30;;;;;;5497660;26;20537;-84
2024/04/13 08:27:52;;;;;;;1.70;1.00;;;25.60;82.60;;;;;;5497868;26;20226;-84
2024/04/13 08:30:18;;;;;;;2.58;1.02;;;25.70;82.30;;;;;;5496850;26;20300;-83
2024/04/13 08:32:48;;;;;;;0.73;0.70;;;25.70;82.40;;;;;;5496908;26;20234;-84
2024/04/13 08:35:14;;;;;;;1.00;1.00;;;25.60;80.30;;;;;;5496122;26;20212;-83
2024/04/13 08:37:48;;;;;;;5.25;1.35;;;25.60;80.80;;;;;;5495913;26;20282;-83
2024/04/13 08:40:14;;;;;;;1.35;1.25;;;25.30;80.70;;;;;;5495536;26;20249;-83
2024/04/13 08:42:44;;;;;;;0.90;0.90;;;25.30;80.00;;;;;;5495455;26;20254;-83
2024/04/13 08:45:12;;;;;;;1.90;1.10;;;25.30;79.20;;;;;;5495005;26;20277;-83
2024/04/13 08:47:41;;;;;;;1.00;1.00;;;25.60;81.20;;;;;;5494830;26;20273;-83
2024/04/13 08:50:08;;;;;;;1.08;0.70;;;25.90;79.80;;;;;;5494259;26;20231;-83
2024/04/13 08:52:37;;;;;;;0.60;0.60;;;26.30;73.90;;;;;;5493959;26;20224;-83
2024/04/13 08:55:07;;;;;;;0.77;0.60;;;26.60;70.90;;;;;;5494281;26;20219;-83
2024/04/13 08:57:39;;;;;;;0.60;0.60;;;27.20;70.90;;;;;;5493976;26;20234;-83
2024/04/13 09:00:08;;;;;;;1.65;0.70;;;27.70;68.10;;;;;;5493956;26;20251;-83
2024/04/13 09:02:39;;;;;;;0.90;0.70;;;28.20;68.70;;;;;;5492674;26;20241;-82
2024/04/13 09:05:08;;;;;;;1.65;1.00;;;28.50;67.80;;;;;;5493509;26;20217;-84
2024/04/13 09:07:37;;;;;;;3.67;1.00;;;29.10;66.00;;;;;;5493533;26;20220;-83
2024/04/13 09:10:09;;;;;;;1.33;0.63;;;29.80;64.60;;;;;;5493499;26;20271;-83
2024/04/13 09:12:38;;;;;;;0.60;0.60;;;30.30;63.50;;;;;;5493605;26;20246;-83
2024/04/13 09:15:04;;;;;;;0.50;0.50;;;30.40;63.90;;;;;;5494392;26;20214;-83
2024/04/13 09:17:34;;;;;;;0.85;0.80;;;30.20;63.70;;;;;;5493519;26;20652;-83
2024/04/13 09:20:06;;;;;;;0.70;0.70;;;30.00;62.10;;;;;;5494609;26;20258;-83
2024/04/13 09:22:36;;;;;;;1.27;0.65;;;29.60;64.50;;;;;;5497590;26;20279;-82
2024/04/13 09:25:08;;;;;;;0.93;0.80;;;28.80;61.90;;;;;;5495885;26;20272;-82
2024/04/13 09:27:36;;;;;;;0.80;0.80;;;28.60;64.10;;;;;;5510639;20;20301;-83
2024/04/13 09:30:06;;;;;;;1.25;0.80;;;28.30;63.60;;;;;;5451804;26;20580;-83
2024/04/13 09:32:35;;;;;;;0.80;0.80;;;28.20;63.80;;;;;;5451829;26;20272;-84
2024/04/13 09:35:08;;;;;;;0.93;0.82;;;27.90;63.50;;;;;;5451382;26;20608;-83
2024/04/13 09:37:36;;;;;;;0.90;0.90;;;27.60;64.50;;;;;;5474754;26;20234;-83
2024/04/13 09:40:06;;;;;;;1.73;0.88;;;27.30;64.50;;;;;;5487906;26;20291;-83
2024/04/13 09:42:37;;;;;;;1.35;0.98;;;27.00;65.50;;;;;;5488437;26;20248;-83
2024/04/13 09:45:04;;;;;;;1.15;0.90;;;26.80;66.90;;;;;;5488312;26;20187;-83
2024/04/13 09:47:33;;;;;;;0.70;0.70;;;26.70;67.20;;;;;;5486058;26;20629;-83
2024/04/13 09:50:33;;;;;;;0.95;0.80;;;26.60;67.20;;;;;;5487539;26;20305;-82
2024/04/13 09:53:16;;;;;;;2.38;0.75;;;26.70;66.50;;;;;;5438927;26;20313;-84
2024/04/13 09:55:42;;;;;;;0.70;0.70;;;26.80;66.40;;;;;;5485595;26;20317;-83
2024/04/13 09:58:15;;;;;;;0.85;0.85;;;26.70;66.20;;;;;;5484509;26;20270;-83
2024/04/13 10:00:43;;;;;;;1.13;1.00;;;26.70;65.50;;;;;;5482245;26;20554;-83
2024/04/13 10:03:12;;;;;;;0.80;0.80;;;26.40;66.00;;;;;;5482096;26;20253;-83
2024/04/13 10:05:38;;;;;;;0.85;0.85;;;26.60;66.90;;;;;;5483915;26;20287;-83
2024/04/13 10:08:09;;;;;;;1.42;0.80;;;26.70;65.70;;;;;;5484876;26;20248;-83
2024/04/13 10:10:36;;;;;;;2.00;0.75;;;26.80;65.70;;;;;;5482858;26;20683;-83
2024/04/13 10:13:06;;;;;;;0.70;0.70;;;27.00;66.70;;;;;;5484024;26;20270;-83
2024/04/13 10:15:34;;;;;;;0.93;0.70;;;27.20;64.90;;;;;;5488477;26;20251;-84
2024/04/13 10:18:05;;;;;;;1.95;0.73;;;27.60;64.50;;;;;;5486358;26;20291;-83
2024/04/13 10:20:31;;;;;;;0.63;0.63;;;27.80;64.10;;;;;;5486742;26;20289;-83
2024/04/13 10:23:01;;;;;;;0.77;0.77;;;27.80;64.30;;;;;;5488937;26;20223;-83
2024/04/13 10:25:27;;;;;;;0.70;0.70;;;27.90;63.10;;;;;;5486654;26;20330;-83
2024/04/13 10:28:06;;;;;;;0.88;0.80;;;27.90;62.10;;;;;;5490360;26;20278;-83
2024/04/13 10:30:45;;;;;;;2.22;0.60;;;28.10;64.20;;;;;;5492739;26;20210;-84
2024/04/13 10:33:24;;;;;;;0.60;0.60;;;28.50;63.40;;;;;;5491786;26;20206;-83
2024/04/13 10:35:57;;;;;;;0.65;0.55;;;28.70;62.10;;;;;;5486266;26;20314;-83
2024/04/13 10:38:26;;;;;;;1.63;0.60;;;28.80;60.30;;;;;;5488079;26;20700;-83
2024/04/13 10:40:52;;;;;;;0.60;0.60;;;28.70;59.30;;;;;;5487276;26;20272;-83
2024/04/13 10:43:21;;;;;;;1.30;0.80;;;28.70;60.30;;;;;;5489269;26;20316;-82
2024/04/13 10:45:54;;;;;;;0.63;0.63;;;29.00;59.10;;;;;;5491147;26;20754;-83
2024/04/13 10:48:23;;;;;;;0.60;0.60;;;29.50;58.00;;;;;;5490932;26;20258;-83
2024/04/13 10:50:51;;;;;;;1.60;1.05;;;30.10;58.10;;;;;;5490342;26;20214;-83
2024/04/13 10:53:23;;;;;;;0.60;0.60;;;30.70;57.20;;;;;;5491067;26;20709;-83
2024/04/13 10:55:49;;;;;;;0.73;0.73;;;30.90;56.70;;;;;;5491044;26;20252;-83
2024/04/13 10:58:18;;;;;;;0.75;0.75;;;30.80;56.90;;;;;;5491188;26;20237;-83
2024/04/13 11:00:44;;;;;;;2.40;0.68;;;30.40;56.70;;;;;;5490835;26;20277;-83
2024/04/13 11:03:16;;;;;;;0.85;0.57;;;29.90;57.70;;;;;;5489872;26;20342;-83
2024/04/13 11:05:43;;;;;;;0.65;0.65;;;29.60;57.80;;;;;;5489894;26;20269;-83
2024/04/13 11:08:12;;;;;;;1.30;0.80;;;29.40;59.00;;;;;;5486872;26;20228;-84
2024/04/13 11:10:39;;;;;;;1.23;0.70;;;29.10;59.70;;;;;;5487852;26;20310;-83
2024/04/13 11:13:08;;;;;;;0.70;0.63;;;28.70;59.00;;;;;;5488840;26;20265;-83
2024/04/13 11:15:34;;;;;;;0.60;0.60;;;28.10;59.00;;;;;;5488753;26;20265;-83
2024/04/13 11:18:03;;;;;;;1.05;0.70;;;27.70;61.40;;;;;;5487781;26;20807;-83
2024/04/13 11:20:35;;;;;;;0.90;0.90;;;27.50;60.90;;;;;;5487886;26;20207;-82
2024/04/13 11:23:04;;;;;;;1.73;1.63;;;27.30;63.10;;;;;;5488453;26;20355;-82
2024/04/13 11:25:33;;;;;;;2.35;0.88;;;27.20;63.00;;;;;;5488455;26;20210;-83
2024/04/13 11:27:59;;;;;;;0.95;0.70;;;27.10;62.60;;;;;;5489293;26;20267;-83
2024/04/13 11:30:27;;;;;;;0.75;0.70;;;27.00;63.50;;;;;;5488688;26;20223;-83
2024/04/13 11:32:53;;;;;;;1.00;0.73;;;26.90;63.80;;;;;;5488148;26;20214;-82
2024/04/13 11:35:23;;;;;;;0.50;0.50;;;26.60;61.80;;;;;;5489308;26;20210;-84
2024/04/13 11:37:59;;;;;;;0.60;0.60;;;26.50;64.60;;;;;;5488339;26;20226;-83
2024/04/13 11:40:31;;;;;;;0.52;0.52;;;26.50;66.20;;;;;;5488754;26;20295;-83
2024/04/13 11:42:57;;;;;;;0.55;0.55;;;26.60;66.90;;;;;;5488815;26;20266;-83
2024/04/13 11:45:26;;;;;;;3.17;0.80;;;26.60;66.90;;;;;;5489393;26;20588;-83
2024/04/13 11:47:53;;;;;;;0.60;0.60;;;26.60;65.70;;;;;;5489079;26;20815;-83
2024/04/13 11:50:22;;;;;;;0.80;0.50;;;26.60;65.10;;;;;;5488911;26;20294;-83
2024/04/13 11:52:48;;;;;;;0.50;0.50;;;26.50;64.00;;;;;;5489460;26;20620;-83
2024/04/13 11:55:22;;;;;;;0.60;0.60;;;26.40;62.70;;;;;;5488690;26;20556;-83
2024/04/13 11:57:48;;;;;;;0.60;0.60;;;26.20;64.00;;;;;;5489495;26;20365;-83
2024/04/13 12:00:18;;;;;;;0.70;0.70;;;26.10;62.70;;;;;;5489261;26;20714;-83
2024/04/13 12:02:44;;;;;;;0.68;0.68;;;26.10;63.90;;;;;;5490979;26;20250;-83
2024/04/13 12:05:12;;;;;;;0.60;0.60;;;26.10;64.90;;;;;;5484468;26;20226;-83
2024/04/13 12:07:38;;;;;;;0.70;0.70;;;26.00;64.00;;;;;;5484999;26;20313;-83
2024/04/13 12:10:07;;;;;;;0.70;0.70;;;26.00;64.80;;;;;;5485016;26;20218;-83
2024/04/13 12:12:36;;;;;;;0.55;0.55;;;26.00;64.40;;;;;;5486141;26;20270;-83
2024/04/13 12:15:04;;;;;;;2.60;1.10;;;25.90;63.70;;;;;;5488856;26;20262;-83
2024/04/13 12:17:30;;;;;;;0.70;0.70;;;25.80;62.90;;;;;;5487069;26;20267;-83
2024/04/13 12:20:00;;;;;;;0.90;0.70;;;25.70;64.40;;;;;;5488087;26;20687;-83
2024/04/13 12:22:26;;;;;;;0.95;0.70;;;25.60;64.00;;;;;;5489342;26;20211;-84
2024/04/13 12:24:55;;;;;;;4.22;0.80;;;25.50;62.30;;;;;;5490114;26;20233;-83
2024/04/13 12:27:20;;;;;;;0.90;0.75;;;25.40;61.90;;;;;;5488196;26;20288;-83
2024/04/13 12:29:52;;;;;;;3.55;0.65;;;25.30;63.50;;;;;;5489991;26;20222;-83
2024/04/13 12:32:18;;;;;;;1.20;0.60;;;25.20;65.90;;;;;;5489347;26;20207;-83
2024/04/13 12:34:47;;;;;;;1.15;0.70;;;25.10;65.90;;;;;;5489093;26;20329;-83
2024/04/13 12:37:13;;;;;;;1.40;0.80;;;25.10;66.50;;;;;;5487450;26;20266;-83
2024/04/13 12:39:42;;;;;;;1.00;0.65;;;25.10;62.60;;;;;;5486826;26;20218;-82
2024/04/13 12:42:09;;;;;;;0.80;0.70;;;25.10;63.80;;;;;;5488150;26;20283;-82
2024/04/13 12:45:00;;;;;;;0.98;0.68;;;25.00;64.90;;;;;;5488613;26;20706;-82
2024/04/13 12:47:26;;;;;;;0.70;0.70;;;25.00;63.00;;;;;;5488043;26;20257;-83
2024/04/13 12:49:55;;;;;;;0.82;0.70;;;24.90;63.20;;;;;;5487837;26;20218;-82
2024/04/13 12:52:21;;;;;;;0.60;0.60;;;24.80;65.10;;;;;;5486644;26;20214;-82
2024/04/13 12:54:49;;;;;;;0.60;0.60;;;24.70;64.30;;;;;;5488649;26;20210;-82